Time;durP1;ratioP1;P1;durP2;ratioP2;P2;SDS_P1;SDS_P2;PMS_P1;PMS_P2;Temp;Humidity;BMP_temperature;BMP_pressure;BME280_temperature;BME280_humidity;BME280_pressure;Samples;Min_cycle;Max_cycle;Signal;HPM_P1;HPM_P2
2023/03/21 00:01:22;;;;;;;20.75;13.02;;;9.70;99.90;;;;;;5031149;28;20064;-65
2023/03/21 00:03:50;;;;;;;18.13;11.07;;;9.70;99.90;;;;;;5031683;28;20057;-65
2023/03/21 00:06:16;;;;;;;17.25;11.77;;;9.50;99.90;;;;;;5031456;28;20092;-65
2023/03/21 00:08:46;;;;;;;19.17;12.30;;;9.50;99.90;;;;;;5031848;28;20434;-65
2023/03/21 00:11:12;;;;;;;17.77;11.50;;;9.70;99.90;;;;;;5032254;28;20073;-65
2023/03/21 00:13:42;;;;;;;18.77;12.07;;;9.60;99.90;;;;;;5032224;28;20076;-66
2023/03/21 00:16:14;;;;;;;18.38;12.93;;;9.60;99.90;;;;;;5031304;28;20091;-65
2023/03/21 00:18:45;;;;;;;19.42;13.32;;;9.60;99.90;;;;;;5032723;28;20086;-65
2023/03/21 00:21:17;;;;;;;21.30;13.07;;;9.70;99.90;;;;;;5032251;28;20053;-65
2023/03/21 00:23:45;;;;;;;19.88;12.90;;;9.50;99.90;;;;;;5031294;28;20057;-65
2023/03/21 00:26:12;;;;;;;19.23;13.48;;;9.50;99.90;;;;;;5032370;28;20053;-65
2023/03/21 00:28:40;;;;;;;21.77;13.23;;;9.60;99.90;;;;;;5031215;28;20056;-65
2023/03/21 00:31:07;;;;;;;21.95;13.75;;;9.70;99.90;;;;;;5030658;28;20048;-66
2023/03/21 00:33:37;;;;;;;22.50;13.07;;;9.60;99.90;;;;;;5032148;28;20053;-65
2023/03/21 00:36:05;;;;;;;21.40;12.80;;;9.60;99.90;;;;;;5032497;28;20045;-66
2023/03/21 00:38:31;;;;;;;21.42;14.85;;;9.70;99.90;;;;;;5032298;28;20370;-65
2023/03/21 00:40:57;;;;;;;19.90;12.80;;;9.60;99.90;;;;;;5032191;28;20049;-66
2023/03/21 00:43:28;;;;;;;22.38;14.30;;;9.60;99.90;;;;;;5030759;28;20060;-66
2023/03/21 00:45:57;;;;;;;20.75;12.73;;;9.50;99.90;;;;;;5032240;28;20049;-65
2023/03/21 00:48:26;;;;;;;21.58;12.82;;;9.60;99.90;;;;;;5032349;28;20049;-65
2023/03/21 00:50:55;;;;;;;22.52;13.82;;;9.50;99.90;;;;;;5030814;28;20146;-66
2023/03/21 00:53:22;;;;;;;23.60;13.85;;;9.60;99.90;;;;;;5032024;28;20045;-65
2023/03/21 00:55:49;;;;;;;22.95;13.40;;;9.60;99.90;;;;;;5032364;28;20095;-65
2023/03/21 00:58:16;;;;;;;22.10;14.02;;;9.70;99.90;;;;;;5031757;28;20537;-66
2023/03/21 01:00:45;;;;;;;24.73;14.30;;;9.70;99.90;;;;;;5030737;28;20489;-65
2023/03/21 01:03:13;;;;;;;23.08;14.80;;;9.80;99.90;;;;;;5031962;28;20046;-65
2023/03/21 01:08:29;;;;;;;24.27;14.45;;;9.60;99.90;;;;;;5036035;28;20481;-65
2023/03/21 01:10:59;;;;;;;23.95;14.32;;;9.80;99.90;;;;;;5035734;28;20050;-65
2023/03/21 01:13:26;;;;;;;23.30;13.55;;;9.70;99.90;;;;;;5035889;28;20041;-66
2023/03/21 01:15:54;;;;;;;24.98;14.85;;;9.70;99.90;;;;;;5035996;28;20049;-66
2023/03/21 01:18:24;;;;;;;23.75;14.68;;;9.70;99.90;;;;;;5035964;28;20045;-65
2023/03/21 01:20:51;;;;;;;23.17;15.40;;;9.60;99.90;;;;;;5018664;28;20584;-65
2023/03/21 01:23:17;;;;;;;27.25;15.73;;;9.80;99.90;;;;;;5035401;28;20366;-65
2023/03/21 01:25:45;;;;;;;25.27;15.32;;;9.60;99.90;;;;;;5035548;28;20049;-65
2023/03/21 01:28:12;;;;;;;21.20;14.18;;;9.60;99.90;;;;;;5035730;28;20049;-65
2023/03/21 01:30:38;;;;;;;25.77;14.93;;;9.80;99.90;;;;;;5035283;28;20045;-65
2023/03/21 01:33:04;;;;;;;25.38;14.68;;;9.80;99.90;;;;;;5035386;28;20041;-65
2023/03/21 01:35:31;;;;;;;22.80;14.38;;;9.70;99.90;;;;;;5035810;28;20461;-65
2023/03/21 01:37:57;;;;;;;25.10;14.40;;;9.80;99.90;;;;;;5035754;28;20060;-65
2023/03/21 01:40:25;;;;;;;24.88;15.43;;;9.60;99.90;;;;;;5035352;28;20106;-65
2023/03/21 01:42:51;;;;;;;26.95;15.23;;;9.80;99.90;;;;;;5035504;28;20057;-65
2023/03/21 01:45:55;;;;;;;24.77;14.15;;;9.70;99.90;;;;;;5035299;28;20057;-65
2023/03/21 01:48:23;;;;;;;25.17;14.57;;;9.80;99.90;;;;;;5034361;28;20429;-65
2023/03/21 01:50:51;;;;;;;23.20;14.32;;;9.70;99.90;;;;;;5035626;28;20068;-65
2023/03/21 01:53:20;;;;;;;24.88;14.38;;;9.80;99.90;;;;;;5034086;28;20453;-66
2023/03/21 01:55:48;;;;;;;26.50;16.63;;;9.70;99.90;;;;;;5035092;28;20440;-65
2023/03/21 01:58:17;;;;;;;25.75;15.10;;;9.80;99.90;;;;;;5034104;28;20053;-65
2023/03/21 02:00:46;;;;;;;22.38;14.30;;;9.60;99.90;;;;;;5033712;28;20068;-66
2023/03/21 02:03:15;;;;;;;22.85;14.50;;;9.70;99.90;;;;;;5033626;28;20045;-65
2023/03/21 02:06:00;;;;;;;23.90;13.45;;;9.80;99.90;;;;;;5035181;28;20192;-65
2023/03/21 02:08:29;;;;;;;20.67;12.95;;;9.60;99.90;;;;;;5017557;28;20049;-65
2023/03/21 02:10:55;;;;;;;20.73;12.60;;;9.80;99.90;;;;;;5033741;28;20076;-65
2023/03/21 02:13:22;;;;;;;20.67;11.85;;;9.80;99.90;;;;;;5033653;28;20045;-65
2023/03/21 02:16:04;;;;;;;18.00;11.68;;;9.80;99.90;;;;;;5032747;28;20176;-65
2023/03/21 02:18:52;;;;;;;18.42;12.68;;;9.50;99.90;;;;;;5017366;28;20425;-66
2023/03/21 02:22:01;;;;;;;15.20;9.48;;;9.60;99.90;;;;;;5034526;28;20060;-65
2023/03/21 02:24:51;;;;;;;15.10;9.93;;;9.70;99.90;;;;;;5033522;28;20049;-65
2023/03/21 02:27:23;;;;;;;15.32;10.18;;;9.60;99.90;;;;;;5033533;28;20544;-65
2023/03/21 02:30:08;;;;;;;15.18;9.73;;;9.70;99.90;;;;;;5033535;28;20053;-65
2023/03/21 02:33:09;;;;;;;15.75;9.70;;;9.70;99.90;;;;;;5034584;28;20045;-65
2023/03/21 02:35:49;;;;;;;13.07;9.18;;;9.50;99.90;;;;;;5014630;28;20046;-65
2023/03/21 02:38:37;;;;;;;13.68;9.15;;;9.70;99.90;;;;;;5014548;28;20050;-65
2023/03/21 02:41:13;;;;;;;14.25;9.20;;;9.70;99.90;;;;;;5014422;28;20502;-65
2023/03/21 02:43:53;;;;;;;15.73;9.18;;;9.70;99.90;;;;;;5021884;28;20524;-65
2023/03/21 02:46:33;;;;;;;14.45;9.60;;;9.70;99.90;;;;;;5033104;28;20057;-65
2023/03/21 02:49:16;;;;;;;14.90;9.35;;;9.60;99.90;;;;;;5033534;28;20049;-65
2023/03/21 02:51:45;;;;;;;15.63;9.68;;;9.60;99.90;;;;;;5032606;28;20051;-65
2023/03/21 02:54:15;;;;;;;13.43;9.10;;;9.60;99.90;;;;;;5033007;28;20103;-65
2023/03/21 02:56:44;;;;;;;14.75;9.07;;;9.70;99.90;;;;;;5016362;28;20437;-65
2023/03/21 02:59:13;;;;;;;15.23;9.25;;;9.70;99.90;;;;;;5032970;28;20484;-65
2023/03/21 03:01:39;;;;;;;13.07;8.60;;;9.60;99.90;;;;;;5032625;28;20049;-65
2023/03/21 03:04:25;;;;;;;13.13;9.45;;;9.50;99.90;;;;;;5032899;28;20730;-65
2023/03/21 03:06:57;;;;;;;13.07;9.13;;;9.50;99.90;;;;;;5032962;28;20053;-65
2023/03/21 03:09:40;;;;;;;13.20;8.80;;;9.70;99.90;;;;;;5033072;28;20083;-65
2023/03/21 03:12:20;;;;;;;13.85;9.23;;;9.60;99.90;;;;;;5015769;28;20052;-65
2023/03/21 03:14:57;;;;;;;13.63;9.63;;;9.50;99.90;;;;;;5032167;28;20050;-66
2023/03/21 03:17:31;;;;;;;13.88;10.05;;;9.70;99.90;;;;;;5032493;28;20537;-65
2023/03/21 03:20:19;;;;;;;13.77;9.38;;;9.50;99.90;;;;;;5033056;28;20064;-65
2023/03/21 03:22:49;;;;;;;17.38;11.10;;;9.60;99.90;;;;;;5032239;28;20457;-65
2023/03/21 03:25:21;;;;;;;15.52;10.57;;;9.70;99.90;;;;;;5012881;28;20061;-65
2023/03/21 03:27:50;;;;;;;15.05;9.68;;;9.50;99.90;;;;;;5029001;28;20067;-65
2023/03/21 03:30:16;;;;;;;17.20;10.70;;;9.60;99.90;;;;;;4996095;28;20119;-65
2023/03/21 03:32:55;;;;;;;16.13;10.82;;;9.70;99.90;;;;;;5029250;28;20124;-65
2023/03/21 03:35:23;;;;;;;17.20;11.35;;;9.50;99.90;;;;;;5012836;28;20054;-65
2023/03/21 03:37:56;;;;;;;16.35;11.60;;;9.40;99.90;;;;;;5012387;28;20421;-65
2023/03/21 03:40:30;;;;;;;15.93;11.25;;;9.70;99.90;;;;;;5012310;28;20054;-65
2023/03/21 03:43:20;;;;;;;16.23;10.77;;;9.60;99.90;;;;;;5014052;28;20421;-65
2023/03/21 03:45:56;;;;;;;19.00;11.10;;;9.70;99.90;;;;;;5031889;28;20049;-65
2023/03/21 03:48:45;;;;;;;17.45;11.57;;;9.50;99.90;;;;;;5031804;28;20128;-65
2023/03/21 03:51:28;;;;;;;18.08;11.50;;;9.50;99.90;;;;;;5031811;28;20049;-65
2023/03/21 03:54:05;;;;;;;16.30;11.98;;;9.70;99.90;;;;;;5031732;28;20053;-65
2023/03/21 03:56:32;;;;;;;16.48;10.90;;;9.70;99.90;;;;;;5032089;28;20359;-65
2023/03/21 03:59:03;;;;;;;17.08;12.52;;;9.50;99.90;;;;;;5031745;28;20405;-65
2023/03/21 04:01:29;;;;;;;16.52;11.10;;;9.50;99.90;;;;;;5032576;28;20053;-65
2023/03/21 04:03:56;;;;;;;16.60;11.30;;;9.60;99.90;;;;;;5031580;28;20049;-64
2023/03/21 04:06:23;;;;;;;16.95;11.65;;;9.50;99.90;;;;;;5031732;28;20064;-65
2023/03/21 04:08:49;;;;;;;16.35;11.23;;;9.70;99.90;;;;;;5032791;28;20049;-65
2023/03/21 04:11:16;;;;;;;15.45;10.93;;;9.50;99.90;;;;;;5031252;28;20079;-65
2023/03/21 04:13:42;;;;;;;16.00;11.77;;;9.70;99.90;;;;;;5032293;28;20425;-65
2023/03/21 04:16:10;;;;;;;15.75;11.93;;;9.50;99.90;;;;;;5032642;28;20099;-65
2023/03/21 04:18:38;;;;;;;17.48;12.50;;;9.60;99.90;;;;;;5032437;28;20092;-65
2023/03/21 04:21:09;;;;;;;16.45;11.20;;;9.70;99.90;;;;;;5031929;28;20486;-65
2023/03/21 04:23:36;;;;;;;17.48;11.52;;;9.70;99.90;;;;;;5032318;28;20081;-66
2023/03/21 04:26:04;;;;;;;16.05;11.40;;;9.50;99.90;;;;;;5031358;28;20049;-65
2023/03/21 04:28:32;;;;;;;18.45;12.43;;;9.50;99.90;;;;;;5032676;28;20056;-65
2023/03/21 04:30:58;;;;;;;18.83;13.20;;;9.50;99.90;;;;;;5032162;28;20140;-65
2023/03/21 04:33:31;;;;;;;18.00;13.23;;;9.60;99.90;;;;;;5032213;28;20059;-65
2023/03/21 04:35:57;;;;;;;16.80;12.48;;;9.50;99.90;;;;;;5032710;28;20049;-65
2023/03/21 04:38:29;;;;;;;20.15;13.63;;;9.70;99.90;;;;;;5031451;28;20056;-65
2023/03/21 04:40:56;;;;;;;19.05;13.13;;;9.70;99.90;;;;;;5030558;28;20140;-65
2023/03/21 04:43:22;;;;;;;19.15;13.45;;;9.70;99.90;;;;;;5031134;28;20053;-65
2023/03/21 04:45:49;;;;;;;20.23;13.80;;;9.50;99.90;;;;;;5014558;28;20137;-65
2023/03/21 04:48:18;;;;;;;20.73;14.65;;;9.70;99.90;;;;;;5031254;28;20045;-65
2023/03/21 04:50:45;;;;;;;19.90;13.60;;;9.50;99.90;;;;;;5030931;28;20057;-65
2023/03/21 04:53:12;;;;;;;21.45;14.88;;;9.60;99.90;;;;;;5031272;28;20385;-65
2023/03/21 04:55:38;;;;;;;21.35;13.85;;;9.50;99.90;;;;;;5031371;28;20056;-66
2023/03/21 04:58:05;;;;;;;21.33;14.10;;;9.70;99.90;;;;;;5031741;28;20045;-65
2023/03/21 05:00:37;;;;;;;22.25;15.10;;;9.40;99.90;;;;;;5031030;28;20053;-65
2023/03/21 05:03:07;;;;;;;21.25;14.93;;;9.40;99.90;;;;;;5030859;28;20222;-65
2023/03/21 05:05:41;;;;;;;23.65;15.60;;;9.70;99.90;;;;;;5032148;28;20049;-65
2023/03/21 05:08:07;;;;;;;21.98;15.00;;;9.50;99.90;;;;;;5030903;28;20485;-65
2023/03/21 05:10:33;;;;;;;23.83;15.80;;;9.60;99.90;;;;;;5031521;28;20405;-65
2023/03/21 05:12:59;;;;;;;20.95;14.50;;;9.50;99.90;;;;;;5032227;28;20052;-65
2023/03/21 05:15:26;;;;;;;25.58;16.15;;;9.60;99.90;;;;;;5032466;28;20061;-66
2023/03/21 05:17:52;;;;;;;23.02;15.27;;;9.60;99.90;;;;;;5032376;28;20132;-66
2023/03/21 05:20:18;;;;;;;24.83;16.30;;;9.50;99.90;;;;;;5032352;28;20057;-65
2023/03/21 05:22:48;;;;;;;27.60;16.42;;;9.40;99.90;;;;;;5031069;28;20389;-65
2023/03/21 05:25:16;;;;;;;23.05;16.65;;;9.50;99.90;;;;;;5030615;28;20112;-65
2023/03/21 05:27:52;;;;;;;27.27;17.13;;;9.50;99.90;;;;;;5030724;28;20425;-65
2023/03/21 05:30:19;;;;;;;28.27;16.52;;;9.50;99.90;;;;;;5030628;28;20442;-65
2023/03/21 05:32:46;;;;;;;25.33;16.05;;;9.50;99.90;;;;;;5030821;28;20073;-65
2023/03/21 05:35:12;;;;;;;21.88;15.48;;;9.50;99.90;;;;;;5030632;28;20045;-64
2023/03/21 05:37:38;;;;;;;24.40;15.68;;;9.60;99.90;;;;;;5002016;28;20061;-65
2023/03/21 05:40:06;;;;;;;20.88;14.25;;;9.60;99.90;;;;;;5019660;28;20046;-65
2023/03/21 05:42:32;;;;;;;21.98;15.25;;;9.40;99.90;;;;;;5041437;28;20049;-66
2023/03/21 05:44:58;;;;;;;25.08;17.10;;;9.40;99.90;;;;;;5012895;28;20351;-65
2023/03/21 05:47:24;;;;;;;23.52;15.90;;;9.40;99.90;;;;;;5021285;28;20038;-65
2023/03/21 05:49:51;;;;;;;20.83;14.05;;;9.50;99.90;;;;;;5020981;28;20068;-65
2023/03/21 05:52:17;;;;;;;21.52;13.77;;;9.40;99.90;;;;;;5023802;28;20053;-65
2023/03/21 05:54:43;;;;;;;21.42;14.93;;;9.60;99.90;;;;;;5025835;28;20058;-65
2023/03/21 05:57:10;;;;;;;24.05;14.40;;;9.50;99.90;;;;;;5023135;28;20522;-65
2023/03/21 05:59:36;;;;;;;19.23;13.27;;;9.40;99.90;;;;;;5022705;28;20111;-65
2023/03/21 06:02:03;;;;;;;20.83;13.52;;;9.40;99.90;;;;;;5023970;28;20480;-65
2023/03/21 06:04:29;;;;;;;15.15;11.07;;;9.50;99.90;;;;;;5033707;28;20045;-65
2023/03/21 06:06:56;;;;;;;16.55;11.02;;;9.60;99.90;;;;;;5034252;28;20060;-65
2023/03/21 06:09:22;;;;;;;18.17;11.77;;;9.40;99.90;;;;;;5035238;28;20067;-64
2023/03/21 06:11:51;;;;;;;16.92;12.32;;;9.40;99.90;;;;;;5034436;28;20485;-65
2023/03/21 06:14:18;;;;;;;14.88;10.15;;;9.60;99.90;;;;;;5034785;28;20061;-65
2023/03/21 06:16:44;;;;;;;14.35;10.10;;;9.60;99.90;;;;;;5053443;28;20481;-65
2023/03/21 06:19:11;;;;;;;14.40;9.85;;;9.40;99.90;;;;;;5050610;28;20139;-65
2023/03/21 06:21:37;;;;;;;12.57;9.70;;;9.60;99.90;;;;;;5040558;28;20049;-65
2023/03/21 06:24:05;;;;;;;15.00;10.25;;;9.60;99.90;;;;;;5034496;28;20045;-65
2023/03/21 06:26:31;;;;;;;15.15;10.65;;;9.40;99.90;;;;;;5034530;28;20052;-65
2023/03/21 06:28:58;;;;;;;13.15;9.32;;;9.50;99.90;;;;;;5033682;28;20053;-65
2023/03/21 06:31:25;;;;;;;13.48;9.75;;;9.40;99.90;;;;;;5031795;28;20072;-64
2023/03/21 06:33:52;;;;;;;16.88;11.55;;;9.50;99.90;;;;;;5015839;28;20053;-65
2023/03/21 06:36:19;;;;;;;16.92;11.73;;;9.50;99.90;;;;;;5044444;28;20068;-65
2023/03/21 06:38:45;;;;;;;18.67;12.57;;;9.40;99.90;;;;;;5052533;28;20060;-65
2023/03/21 06:41:12;;;;;;;20.10;13.63;;;9.50;99.90;;;;;;5051997;28;20173;-64
2023/03/21 06:43:38;;;;;;;18.52;12.00;;;9.50;99.90;;;;;;5045241;28;20045;-63
2023/03/21 06:46:05;;;;;;;17.40;12.57;;;9.30;99.90;;;;;;5032103;28;20060;-63
2023/03/21 06:48:31;;;;;;;18.48;12.63;;;9.50;99.90;;;;;;5032136;28;20057;-65
2023/03/21 06:50:57;;;;;;;18.70;12.73;;;9.30;99.90;;;;;;5032567;28;20081;-63
2023/03/21 06:53:26;;;;;;;22.15;13.95;;;9.30;99.90;;;;;;5032651;28;20405;-64
2023/03/21 06:55:53;;;;;;;19.70;13.48;;;9.50;99.90;;;;;;5033061;28;20045;-64
2023/03/21 06:58:20;;;;;;;20.23;13.43;;;9.50;99.90;;;;;;5032725;28;20469;-64
2023/03/21 07:00:47;;;;;;;21.80;13.60;;;9.60;99.90;;;;;;5034050;28;20053;-64
2023/03/21 07:03:16;;;;;;;18.92;13.75;;;9.30;99.90;;;;;;5034243;28;20107;-64
2023/03/21 07:05:42;;;;;;;21.63;15.48;;;9.50;99.90;;;;;;5034930;28;20054;-64
2023/03/21 07:08:11;;;;;;;20.73;13.75;;;9.50;99.90;;;;;;5033506;28;20056;-64
2023/03/21 07:10:39;;;;;;;23.50;14.13;;;9.50;99.90;;;;;;5017120;28;20049;-65
2023/03/21 07:13:05;;;;;;;26.17;14.98;;;9.50;99.90;;;;;;5033413;28;20497;-63
2023/03/21 07:15:33;;;;;;;21.65;14.35;;;9.50;99.90;;;;;;5032936;28;20063;-64
2023/03/21 07:17:59;;;;;;;22.33;15.23;;;9.40;99.90;;;;;;5033179;28;20064;-63
2023/03/21 07:20:26;;;;;;;23.48;14.75;;;9.40;99.90;;;;;;5034304;28;20063;-64
2023/03/21 07:22:52;;;;;;;20.33;13.52;;;9.40;99.90;;;;;;5033163;28;20054;-63
2023/03/21 07:25:19;;;;;;;22.13;14.85;;;9.40;99.90;;;;;;5033766;28;20053;-64
2023/03/21 07:27:45;;;;;;;23.83;14.88;;;9.40;99.90;;;;;;5033324;28;20497;-64
2023/03/21 07:30:12;;;;;;;23.27;15.63;;;9.50;99.90;;;;;;5032920;28;20508;-63
2023/03/21 07:32:39;;;;;;;20.23;14.23;;;9.60;99.90;;;;;;5033012;28;20045;-63
2023/03/21 07:35:13;;;;;;;21.60;13.75;;;9.60;99.90;;;;;;5034288;28;20049;-64
2023/03/21 07:37:39;;;;;;;18.88;13.60;;;9.50;99.90;;;;;;5033089;28;20049;-65
2023/03/21 07:40:11;;;;;;;22.25;15.38;;;9.60;99.90;;;;;;5033225;28;20390;-64
2023/03/21 07:42:38;;;;;;;18.95;13.40;;;9.60;99.90;;;;;;5034657;28;20057;-64
2023/03/21 07:45:06;;;;;;;21.55;14.10;;;9.40;99.90;;;;;;5033139;28;20509;-63
2023/03/21 07:47:33;;;;;;;21.85;14.30;;;9.50;99.90;;;;;;5032726;28;20103;-64
2023/03/21 07:49:59;;;;;;;20.00;13.23;;;9.50;99.90;;;;;;5033414;28;20500;-64
2023/03/21 07:52:26;;;;;;;21.08;13.38;;;9.60;99.90;;;;;;5033542;28;20061;-64
2023/03/21 07:54:52;;;;;;;20.08;12.93;;;9.60;99.90;;;;;;5032381;28;20068;-63
2023/03/21 07:57:18;;;;;;;18.13;12.40;;;9.70;99.90;;;;;;5032540;28;20057;-64
2023/03/21 07:59:45;;;;;;;18.85;11.88;;;9.50;99.90;;;;;;5031664;28;20049;-64
2023/03/21 08:02:16;;;;;;;22.77;11.88;;;9.50;99.90;;;;;;5032317;28;20050;-63
2023/03/21 08:04:43;;;;;;;18.90;11.68;;;9.70;99.90;;;;;;5032200;28;20462;-63
2023/03/21 08:07:13;;;;;;;18.90;12.07;;;9.80;99.90;;;;;;5031881;28;20049;-64
2023/03/21 08:09:39;;;;;;;16.88;11.43;;;9.70;99.90;;;;;;5032190;28;20470;-64
2023/03/21 08:12:07;;;;;;;19.05;12.18;;;9.80;99.90;;;;;;5032623;28;20489;-64
2023/03/21 08:14:35;;;;;;;21.75;12.80;;;9.70;99.90;;;;;;5031313;28;20057;-65
2023/03/21 08:17:03;;;;;;;19.33;11.45;;;9.80;99.90;;;;;;5032937;28;20042;-64
2023/03/21 08:19:29;;;;;;;20.20;11.63;;;9.80;99.90;;;;;;5032545;28;20064;-64
2023/03/21 08:21:58;;;;;;;20.42;12.13;;;9.80;99.90;;;;;;5032300;28;20049;-64
2023/03/21 08:24:27;;;;;;;18.85;11.30;;;9.80;99.90;;;;;;5032259;28;20470;-64
2023/03/21 08:26:53;;;;;;;21.08;12.68;;;9.90;99.90;;;;;;5032595;28;20045;-64
2023/03/21 08:29:20;;;;;;;20.90;12.70;;;9.80;99.90;;;;;;5032487;28;20141;-64
2023/03/21 08:31:46;;;;;;;18.88;11.25;;;9.80;99.90;;;;;;5032238;28;20045;-65
2023/03/21 08:34:13;;;;;;;20.80;12.02;;;9.80;99.90;;;;;;5032338;28;20045;-64
2023/03/21 08:36:39;;;;;;;21.15;12.50;;;9.90;99.90;;;;;;5032422;28;20041;-64
2023/03/21 08:39:05;;;;;;;20.70;11.85;;;9.80;99.90;;;;;;5032302;28;20059;-64
2023/03/21 08:41:33;;;;;;;22.30;13.05;;;9.80;99.90;;;;;;5032061;28;20486;-64
2023/03/21 08:43:59;;;;;;;19.55;12.55;;;10.00;99.90;;;;;;5031219;28;20197;-64
2023/03/21 08:46:26;;;;;;;20.88;13.13;;;10.00;99.90;;;;;;5032364;28;20144;-64
2023/03/21 08:48:53;;;;;;;23.88;12.23;;;10.10;99.90;;;;;;5032666;28;20063;-64
2023/03/21 08:51:20;;;;;;;22.05;12.85;;;9.90;99.90;;;;;;5031554;28;20512;-64
2023/03/21 08:53:48;;;;;;;19.33;13.13;;;9.90;99.90;;;;;;5031835;28;20085;-64
2023/03/21 08:56:15;;;;;;;20.05;12.82;;;9.90;99.90;;;;;;5032297;28;20045;-64
2023/03/21 08:58:41;;;;;;;21.08;12.25;;;10.00;99.90;;;;;;5032246;28;20049;-64
2023/03/21 09:01:10;;;;;;;22.17;12.07;;;9.90;99.90;;;;;;5031662;28;20063;-64
2023/03/21 09:03:37;;;;;;;21.70;12.35;;;10.00;99.90;;;;;;5031953;28;20095;-64
2023/03/21 09:06:04;;;;;;;21.85;11.32;;;9.90;99.90;;;;;;5032273;28;20053;-64
2023/03/21 09:08:30;;;;;;;21.63;13.25;;;10.00;99.90;;;;;;5030977;28;20053;-64
2023/03/21 09:10:56;;;;;;;23.35;12.88;;;9.90;99.90;;;;;;5031599;28;20060;-64
2023/03/21 09:13:24;;;;;;;19.10;11.82;;;9.90;99.90;;;;;;5031601;28;20049;-64
2023/03/21 09:15:51;;;;;;;20.33;13.25;;;9.90;99.90;;;;;;5031466;28;20417;-64
2023/03/21 09:18:21;;;;;;;18.70;11.82;;;9.90;99.90;;;;;;5032135;28;20137;-65
2023/03/21 09:20:49;;;;;;;18.60;11.38;;;10.00;99.90;;;;;;5032227;28;20046;-65
2023/03/21 09:23:15;;;;;;;18.30;12.07;;;9.90;99.90;;;;;;5031871;28;20058;-64
2023/03/21 09:25:44;;;;;;;20.55;11.10;;;10.00;99.90;;;;;;5032145;28;20061;-64
2023/03/21 09:28:11;;;;;;;21.23;13.35;;;10.10;99.90;;;;;;5035457;28;20393;-65
2023/03/21 09:30:38;;;;;;;21.80;12.27;;;9.90;99.90;;;;;;5035327;28;20064;-65
2023/03/21 09:33:07;;;;;;;17.50;11.00;;;10.10;99.90;;;;;;5035695;28;20042;-64
2023/03/21 09:35:33;;;;;;;19.70;11.70;;;10.10;99.90;;;;;;5034801;28;20061;-65
2023/03/21 09:38:00;;;;;;;18.60;10.55;;;10.30;99.90;;;;;;5035407;28;20053;-65
2023/03/21 09:40:41;;;;;;;19.65;11.27;;;10.30;99.90;;;;;;5034248;28;20103;-64
2023/03/21 09:43:33;;;;;;;16.35;10.73;;;10.40;99.90;;;;;;5035445;28;20049;-64
2023/03/21 09:46:24;;;;;;;16.10;10.73;;;10.30;99.90;;;;;;5034227;28;20050;-65
2023/03/21 09:49:08;;;;;;;17.33;10.65;;;10.30;99.90;;;;;;5035662;28;20045;-65
2023/03/21 09:51:40;;;;;;;17.73;10.75;;;10.40;99.90;;;;;;5035118;28;20053;-64
2023/03/21 09:54:29;;;;;;;19.33;11.27;;;10.40;99.90;;;;;;5034985;28;20053;-63
2023/03/21 09:57:03;;;;;;;15.90;10.48;;;10.60;99.90;;;;;;5034977;28;20548;-65
2023/03/21 09:59:39;;;;;;;19.77;11.38;;;10.70;99.90;;;;;;5034764;28;20080;-65
2023/03/21 10:02:20;;;;;;;17.58;11.18;;;10.60;99.90;;;;;;5035275;28;20066;-64
2023/03/21 10:04:48;;;;;;;20.52;11.57;;;10.60;99.90;;;;;;5033941;28;20049;-64
2023/03/21 10:07:17;;;;;;;19.92;10.68;;;10.80;99.90;;;;;;5035071;28;20061;-64
2023/03/21 10:09:44;;;;;;;16.35;11.48;;;10.60;99.90;;;;;;5034544;28;20484;-64
2023/03/21 10:12:18;;;;;;;17.92;9.73;;;10.70;99.90;;;;;;5034820;28;20049;-64
2023/03/21 10:14:47;;;;;;;16.60;9.57;;;10.80;99.90;;;;;;5034092;28;20053;-65
2023/03/21 10:17:28;;;;;;;16.25;9.82;;;10.70;99.90;;;;;;5034868;28;20056;-63
2023/03/21 10:20:09;;;;;;;16.80;10.50;;;10.70;99.90;;;;;;5033633;28;20057;-63
2023/03/21 10:22:37;;;;;;;16.05;11.57;;;10.80;99.90;;;;;;5033467;28;20390;-63
2023/03/21 10:25:04;;;;;;;19.13;10.93;;;11.00;99.90;;;;;;5034559;28;20072;-64
2023/03/21 10:27:35;;;;;;;18.50;10.68;;;10.90;99.90;;;;;;5034454;28;20053;-64
2023/03/21 10:30:06;;;;;;;19.10;11.50;;;11.10;99.90;;;;;;5034152;28;20081;-64
2023/03/21 10:32:33;;;;;;;21.95;11.40;;;11.20;99.90;;;;;;5034568;28;20045;-64
2023/03/21 10:35:02;;;;;;;20.05;11.40;;;11.20;99.90;;;;;;5033964;28;20049;-64
2023/03/21 10:37:29;;;;;;;19.60;11.40;;;11.30;99.90;;;;;;5032897;28;20049;-64
2023/03/21 10:39:55;;;;;;;17.63;12.38;;;11.40;99.90;;;;;;5034122;28;20381;-64
2023/03/21 10:42:32;;;;;;;18.70;11.48;;;11.50;99.90;;;;;;5034288;28;20049;-64
2023/03/21 10:44:59;;;;;;;17.30;10.32;;;11.50;99.90;;;;;;5034231;28;20104;-64
2023/03/21 10:47:35;;;;;;;18.65;11.50;;;11.50;99.90;;;;;;5033561;28;20049;-64
2023/03/21 10:50:04;;;;;;;16.83;10.02;;;11.50;99.90;;;;;;5032864;28;20057;-64
2023/03/21 10:52:32;;;;;;;20.25;11.43;;;11.40;99.90;;;;;;5034183;28;20049;-65
2023/03/21 10:55:15;;;;;;;18.45;9.50;;;11.60;99.90;;;;;;5034276;28;20049;-65
2023/03/21 10:57:41;;;;;;;17.77;10.05;;;11.70;99.90;;;;;;5034149;28;20064;-64
2023/03/21 11:00:21;;;;;;;13.07;8.60;;;11.80;99.90;;;;;;5033173;28;20053;-65
2023/03/21 11:02:50;;;;;;;17.20;9.52;;;11.70;99.90;;;;;;5032985;28;20049;-64
2023/03/21 11:05:21;;;;;;;15.13;8.90;;;11.80;99.90;;;;;;5033657;28;20057;-63
2023/03/21 11:07:57;;;;;;;14.23;9.30;;;12.00;99.90;;;;;;5033584;28;20041;-64
2023/03/21 11:10:32;;;;;;;14.40;8.50;;;11.80;99.90;;;;;;5033624;28;20049;-64
2023/03/21 11:13:04;;;;;;;13.32;7.97;;;11.90;99.90;;;;;;5033958;28;20509;-64
2023/03/21 11:15:36;;;;;;;11.13;8.30;;;12.00;99.90;;;;;;5033008;28;20054;-64
2023/03/21 11:18:21;;;;;;;15.35;8.75;;;11.90;99.90;;;;;;5033802;28;20347;-64
2023/03/21 11:20:54;;;;;;;14.18;7.20;;;12.00;99.90;;;;;;5033384;28;20057;-64
2023/03/21 11:23:24;;;;;;;13.30;8.02;;;12.00;99.90;;;;;;5033295;28;20409;-64
2023/03/21 11:25:51;;;;;;;11.85;7.50;;;12.10;99.90;;;;;;5033750;28;20326;-64
2023/03/21 11:28:23;;;;;;;12.18;6.50;;;12.10;99.90;;;;;;5033500;28;20045;-64
2023/03/21 11:30:50;;;;;;;;;;;12.10;99.90;;;;;;5032555;28;20049;-64
2023/03/21 11:33:18;;;;;;;11.27;6.90;;;12.10;99.90;;;;;;5033031;28;19933;-64
2023/03/21 11:36:00;;;;;;;10.50;6.35;;;12.10;99.90;;;;;;5033080;28;20474;-64
2023/03/21 11:38:31;;;;;;;10.73;6.80;;;12.10;99.90;;;;;;5033563;28;20057;-64
2023/03/21 11:41:00;;;;;;;9.82;6.95;;;12.20;99.90;;;;;;5032260;28;20057;-64
2023/03/21 11:43:30;;;;;;;12.75;6.97;;;12.30;99.90;;;;;;5033237;28;20107;-64
2023/03/21 11:46:05;;;;;;;9.07;6.28;;;12.40;99.90;;;;;;5032985;28;20053;-63
2023/03/21 11:48:43;;;;;;;9.57;7.18;;;12.30;99.90;;;;;;5032893;28;20481;-64
2023/03/21 11:51:32;;;;;;;11.10;6.95;;;12.50;99.90;;;;;;5032771;28;20101;-64
2023/03/21 11:54:11;;;;;;;10.73;6.20;;;12.60;99.90;;;;;;5033022;28;20056;-65
2023/03/21 11:56:42;;;;;;;11.27;7.30;;;12.70;99.90;;;;;;5033111;28;20148;-64
2023/03/21 11:59:17;;;;;;;10.55;6.57;;;12.80;99.90;;;;;;5032905;28;20454;-64
2023/03/21 12:01:59;;;;;;;8.55;6.25;;;12.80;99.90;;;;;;5032896;28;20053;-64
2023/03/21 12:04:45;;;;;;;10.98;5.90;;;12.70;99.90;;;;;;5032867;28;20056;-64
2023/03/21 12:07:19;;;;;;;9.48;6.40;;;12.60;99.90;;;;;;5032852;28;20045;-64
2023/03/21 12:10:08;;;;;;;10.10;6.38;;;12.50;99.90;;;;;;5032340;28;20079;-64
2023/03/21 12:13:03;;;;;;;10.00;7.05;;;12.40;99.90;;;;;;5032960;28;20045;-65
2023/03/21 12:15:48;;;;;;;11.25;6.38;;;12.40;99.90;;;;;;5031975;28;20049;-65
2023/03/21 12:18:40;;;;;;;12.43;6.85;;;12.40;99.90;;;;;;5033009;28;20057;-65
2023/03/21 12:21:22;;;;;;;12.32;6.30;;;12.40;99.90;;;;;;5032352;28;20454;-64
2023/03/21 12:24:22;;;;;;;12.27;6.88;;;12.40;99.90;;;;;;5032622;28;20051;-65
2023/03/21 12:26:57;;;;;;;10.07;6.57;;;12.30;99.90;;;;;;5032922;28;20064;-64
2023/03/21 12:30:01;;;;;;;9.80;6.18;;;12.30;99.90;;;;;;5032453;28;20055;-64
2023/03/21 12:32:56;;;;;;;11.35;5.93;;;12.20;99.90;;;;;;5031356;28;20057;-64
2023/03/21 12:35:50;;;;;;;13.70;7.40;;;12.30;99.90;;;;;;5032203;28;20377;-65
2023/03/21 12:38:46;;;;;;;9.48;5.93;;;12.50;99.90;;;;;;5032569;28;20442;-64
2023/03/21 12:41:18;;;;;;;;;;;12.60;99.90;;;;;;5031915;28;20045;-65
2023/03/21 12:44:01;;;;;;;12.65;7.35;;;12.80;99.90;;;;;;5031249;28;20016;-64
2023/03/21 12:46:48;;;;;;;11.13;6.28;;;13.00;99.90;;;;;;5032184;28;20060;-64
2023/03/21 12:49:27;;;;;;;10.85;6.43;;;13.00;99.90;;;;;;5031923;28;20064;-64
2023/03/21 12:52:00;;;;;;;9.52;6.20;;;13.10;99.90;;;;;;5032439;28;20049;-65
2023/03/21 12:54:38;;;;;;;10.68;6.38;;;13.10;99.90;;;;;;5032230;28;20049;-65
2023/03/21 12:57:13;;;;;;;9.32;6.63;;;13.00;99.90;;;;;;5032238;28;20103;-65
2023/03/21 13:00:12;;;;;;;9.13;6.40;;;13.00;99.90;;;;;;5031789;28;20053;-65
2023/03/21 13:02:58;;;;;;;8.98;6.95;;;13.00;99.90;;;;;;5036048;28;20397;-64